Time;durP1;ratioP1;P1;durP2;ratioP2;P2;SDS_P1;SDS_P2;PMS_P1;PMS_P2;Temp;Humidity;BMP_temperature;BMP_pressure;BME280_temperature;BME280_humidity;BME280_pressure;Samples;Min_cycle;Max_cycle;Signal;HPM_P1;HPM_P2
2024/01/16 00:00:08;;;;;;;3.75;1.40;;;21.80;29.30;;;;;;4963834;28;20418;-55
2024/01/16 00:02:36;;;;;;;2.20;1.52;;;21.80;29.30;;;;;;4963285;28;20058;-54
2024/01/16 00:05:05;;;;;;;2.58;1.50;;;21.80;29.30;;;;;;4963338;28;20058;-54
2024/01/16 00:07:34;;;;;;;3.85;1.77;;;21.80;29.20;;;;;;4966363;28;20518;-52
2024/01/16 00:10:02;;;;;;;3.17;1.70;;;21.80;29.20;;;;;;4962000;28;20063;-56
2024/01/16 00:12:29;;;;;;;4.18;1.63;;;21.80;29.20;;;;;;4966199;28;20055;-54
2024/01/16 00:14:56;;;;;;;3.95;1.70;;;21.80;29.10;;;;;;4965224;28;20050;-55
2024/01/16 00:17:23;;;;;;;2.53;1.38;;;21.80;29.10;;;;;;4965621;28;20503;-55
2024/01/16 00:19:50;;;;;;;7.88;1.88;;;21.80;29.10;;;;;;4966547;28;20081;-54
2024/01/16 00:22:19;;;;;;;3.47;1.83;;;21.80;29.10;;;;;;4967281;28;20054;-53
2024/01/16 00:24:46;;;;;;;9.70;1.73;;;21.70;29.10;;;;;;4968274;28;20051;-53
2024/01/16 00:27:13;;;;;;;4.03;1.73;;;21.70;29.10;;;;;;4965513;28;20074;-53
2024/01/16 00:29:41;;;;;;;3.40;1.70;;;21.70;29.10;;;;;;4966745;28;20484;-55
2024/01/16 00:32:08;;;;;;;4.55;1.73;;;21.70;29.10;;;;;;4965097;28;20054;-55
2024/01/16 00:34:35;;;;;;;4.53;1.52;;;21.60;29.10;;;;;;4963295;28;20411;-53
2024/01/16 00:37:02;;;;;;;3.53;1.73;;;21.60;29.10;;;;;;4966947;28;20055;-56
2024/01/16 00:39:31;;;;;;;2.67;1.33;;;21.60;29.20;;;;;;4968446;28;20231;-58
2024/01/16 00:41:58;;;;;;;4.45;1.73;;;21.60;29.30;;;;;;4965254;28;20054;-50
2024/01/16 00:44:25;;;;;;;3.67;1.77;;;21.70;29.30;;;;;;4967539;28;20055;-59
2024/01/16 00:46:53;;;;;;;5.10;1.75;;;21.70;29.30;;;;;;4968495;28;20419;-58
2024/01/16 00:49:20;;;;;;;4.82;1.90;;;21.70;29.30;;;;;;4964973;28;20054;-57
2024/01/16 00:51:47;;;;;;;2.67;1.30;;;21.80;29.30;;;;;;4961023;28;20047;-56
2024/01/16 00:54:14;;;;;;;3.25;1.67;;;21.80;29.30;;;;;;4965655;28;20530;-58
2024/01/16 00:56:44;;;;;;;5.38;1.77;;;21.80;29.20;;;;;;4964467;28;20047;-52
2024/01/16 00:59:12;;;;;;;5.32;1.70;;;21.80;29.20;;;;;;4963465;28;20074;-55
2024/01/16 01:01:39;;;;;;;4.22;1.75;;;21.80;29.10;;;;;;4967041;28;20502;-59
2024/01/16 01:04:06;;;;;;;3.65;1.80;;;21.80;29.10;;;;;;4964759;28;20054;-58
2024/01/16 01:06:33;;;;;;;4.25;1.70;;;21.80;29.10;;;;;;4964417;28;20059;-55
2024/01/16 01:09:00;;;;;;;5.03;1.65;;;21.80;29.10;;;;;;4966622;28;20054;-53
2024/01/16 01:11:28;;;;;;;4.07;1.60;;;21.80;29.00;;;;;;4963402;28;20061;-58
2024/01/16 01:13:56;;;;;;;5.38;1.90;;;21.80;29.10;;;;;;4966262;28;20059;-58
2024/01/16 01:16:24;;;;;;;4.20;1.90;;;21.80;29.00;;;;;;4966193;28;20066;-55
2024/01/16 01:18:51;;;;;;;4.07;1.67;;;21.70;29.00;;;;;;4964972;28;20055;-57
2024/01/16 01:21:18;;;;;;;4.13;1.90;;;21.70;29.00;;;;;;4966520;28;20400;-58
2024/01/16 01:23:45;;;;;;;3.97;1.75;;;21.70;29.00;;;;;;4966338;28;20070;-57
2024/01/16 01:26:14;;;;;;;4.55;1.63;;;21.70;29.00;;;;;;4962757;28;20058;-58
2024/01/16 01:28:41;;;;;;;4.85;1.90;;;21.60;29.00;;;;;;4965335;28;20109;-58
2024/01/16 01:31:12;;;;;;;4.68;1.98;;;21.60;29.00;;;;;;4964465;28;20054;-57
2024/01/16 01:33:40;;;;;;;5.35;1.83;;;21.60;29.00;;;;;;4962793;28;20061;-56
2024/01/16 01:39:30;;;;;;;3.33;1.77;;;21.60;29.10;;;;;;4963190;28;20037;-58
2024/01/16 01:41:57;;;;;;;4.18;1.50;;;21.60;29.10;;;;;;4964612;28;20054;-58
2024/01/16 01:44:24;;;;;;;6.50;2.22;;;21.50;29.10;;;;;;4963551;28;20089;-59
2024/01/16 01:46:55;;;;;;;3.75;1.50;;;21.50;29.20;;;;;;4963475;28;20051;-54
2024/01/16 01:49:23;;;;;;;4.43;1.60;;;21.60;29.30;;;;;;4963745;28;20055;-54
2024/01/16 01:51:51;;;;;;;3.38;1.70;;;21.60;29.30;;;;;;4963054;28;20492;-57
2024/01/16 01:54:20;;;;;;;4.03;1.52;;;21.70;29.30;;;;;;4966521;28;20488;-59
2024/01/16 01:56:48;;;;;;;5.10;1.60;;;21.70;29.30;;;;;;4963405;28;20046;-59
2024/01/16 01:59:19;;;;;;;2.72;1.42;;;21.70;29.20;;;;;;4964086;28;20522;-58
2024/01/16 02:01:48;;;;;;;3.65;1.67;;;21.70;29.20;;;;;;4958733;28;20500;-59
2024/01/16 02:04:18;;;;;;;4.30;1.73;;;21.80;29.20;;;;;;4965200;28;20051;-58
2024/01/16 02:06:46;;;;;;;5.05;1.92;;;21.80;29.20;;;;;;4962165;28;20062;-53
2024/01/16 02:09:13;;;;;;;3.88;1.80;;;21.80;29.10;;;;;;4965831;28;20054;-58
2024/01/16 02:11:41;;;;;;;4.25;1.70;;;21.80;29.10;;;;;;4965466;28;20050;-58
2024/01/16 02:14:08;;;;;;;5.53;1.80;;;21.80;29.10;;;;;;4960750;28;20058;-56
2024/01/16 02:16:38;;;;;;;3.63;1.73;;;21.80;29.10;;;;;;4967669;28;20575;-58
2024/01/16 02:19:05;;;;;;;4.75;1.90;;;21.70;29.00;;;;;;4969537;28;20058;-57
2024/01/16 02:21:39;;;;;;;4.65;2.20;;;21.70;29.10;;;;;;4969248;28;20054;-58
2024/01/16 02:24:09;;;;;;;5.28;2.15;;;21.70;29.00;;;;;;4970343;28;20059;-58
2024/01/16 02:26:36;;;;;;;4.75;2.00;;;21.70;29.00;;;;;;4968087;28;20055;-57
2024/01/16 02:29:04;;;;;;;6.28;2.08;;;21.70;29.00;;;;;;4969260;28;20061;-55
2024/01/16 02:31:32;;;;;;;5.68;2.05;;;21.70;28.90;;;;;;4968544;28;20055;-58
2024/01/16 02:33:59;;;;;;;4.07;1.90;;;21.60;28.90;;;;;;4966176;28;20050;-56
2024/01/16 02:36:27;;;;;;;5.63;2.22;;;21.60;28.90;;;;;;4969575;28;20058;-57
2024/01/16 02:38:54;;;;;;;4.75;1.90;;;21.60;28.90;;;;;;4968871;28;20058;-55
2024/01/16 02:41:23;;;;;;;4.43;1.95;;;21.50;28.90;;;;;;4960635;28;20062;-56
2024/01/16 02:43:50;;;;;;;5.75;2.00;;;21.50;28.90;;;;;;4968263;28;20050;-58
2024/01/16 02:46:17;;;;;;;4.50;1.60;;;21.50;29.00;;;;;;4966949;28;20046;-57
2024/01/16 02:48:46;;;;;;;5.25;1.90;;;21.50;29.00;;;;;;4963886;28;20079;-51
2024/01/16 02:51:13;;;;;;;6.28;1.90;;;21.60;29.10;;;;;;4969221;28;20054;-57
2024/01/16 02:53:41;;;;;;;3.38;1.58;;;21.60;29.20;;;;;;4966597;28;20516;-57
2024/01/16 02:56:09;;;;;;;4.25;1.92;;;21.60;29.20;;;;;;4966207;28;20058;-58
2024/01/16 02:58:38;;;;;;;4.43;2.08;;;21.70;29.20;;;;;;4968287;28;20083;-57
2024/01/16 03:01:05;;;;;;;4.68;1.75;;;21.70;29.20;;;;;;4963904;28;20518;-53
2024/01/16 03:03:33;;;;;;;4.57;1.70;;;21.70;29.20;;;;;;4967851;28;20051;-52
2024/01/16 03:06:00;;;;;;;3.58;1.73;;;21.70;29.10;;;;;;4967790;28;20051;-52
2024/01/16 03:08:27;;;;;;;4.28;1.60;;;21.70;29.10;;;;;;4966173;28;20391;-55
2024/01/16 03:10:54;;;;;;;3.88;2.00;;;21.80;29.10;;;;;;4968726;28;20488;-53
2024/01/16 03:13:21;;;;;;;3.55;1.83;;;21.80;29.10;;;;;;4967631;28;20066;-54
2024/01/16 03:15:50;;;;;;;4.15;2.15;;;21.70;29.00;;;;;;4965674;28;20419;-52
2024/01/16 03:18:17;;;;;;;3.38;1.70;;;21.80;29.00;;;;;;4968950;28;20062;-52
2024/01/16 03:20:46;;;;;;;5.40;2.05;;;21.70;29.00;;;;;;4965363;28;21015;-55
2024/01/16 03:23:13;;;;;;;5.65;1.90;;;21.70;29.00;;;;;;4968447;28;20057;-56
2024/01/16 03:25:40;;;;;;;5.50;2.28;;;21.70;29.00;;;;;;4967352;28;20063;-51
2024/01/16 03:28:10;;;;;;;3.97;2.03;;;21.70;28.90;;;;;;4964353;28;20082;-53
2024/01/16 03:30:37;;;;;;;4.47;1.90;;;21.60;28.90;;;;;;4970066;28;20546;-56
2024/01/16 03:33:06;;;;;;;5.53;1.90;;;21.60;28.90;;;;;;4967492;28;20059;-55
2024/01/16 03:35:32;;;;;;;4.70;1.83;;;21.60;28.90;;;;;;4968490;28;20055;-56
2024/01/16 03:37:59;;;;;;;4.55;1.75;;;21.60;28.90;;;;;;4967803;28;20054;-55
2024/01/16 03:40:27;;;;;;;5.22;1.90;;;21.60;28.90;;;;;;4964856;28;20427;-54
2024/01/16 03:42:54;;;;;;;4.63;1.92;;;21.50;28.90;;;;;;4964438;28;20047;-53
2024/01/16 03:45:21;;;;;;;3.63;1.85;;;21.50;29.00;;;;;;4969500;28;20058;-52
2024/01/16 03:47:50;;;;;;;5.78;2.00;;;21.50;29.00;;;;;;4966630;28;20046;-54
2024/01/16 03:50:18;;;;;;;4.75;1.90;;;21.50;29.10;;;;;;4965607;28;20054;-54
2024/01/16 03:52:45;;;;;;;4.85;1.67;;;21.60;29.20;;;;;;4965277;28;20077;-55
2024/01/16 03:55:13;;;;;;;4.30;1.70;;;21.60;29.20;;;;;;4965271;28;20047;-53
2024/01/16 03:57:40;;;;;;;3.75;1.60;;;21.60;29.20;;;;;;4959286;28;20047;-56
2024/01/16 04:00:12;;;;;;;6.65;2.70;;;21.70;29.30;;;;;;4963187;28;20474;-58
2024/01/16 04:02:39;;;;;;;10.93;2.90;;;21.70;29.10;;;;;;4966858;28;20335;-57
2024/01/16 04:05:07;;;;;;;7.78;3.08;;;21.70;28.80;;;;;;4963394;28;20055;-56
2024/01/16 04:07:35;;;;;;;10.05;3.05;;;21.80;28.70;;;;;;4963863;28;20055;-55
2024/01/16 04:10:05;;;;;;;10.25;2.28;;;21.80;28.70;;;;;;4962928;28;20343;-54
2024/01/16 04:12:32;;;;;;;8.85;2.25;;;21.80;28.90;;;;;;4967201;28;20061;-57
2024/01/16 04:14:59;;;;;;;5.72;2.22;;;21.80;28.80;;;;;;4967916;28;20046;-58
2024/01/16 04:17:27;;;;;;;6.70;2.13;;;21.80;28.80;;;;;;4967654;28;20058;-58
2024/01/16 04:19:55;;;;;;;8.75;2.50;;;21.70;28.80;;;;;;4962071;28;20059;-56
2024/01/16 04:22:22;;;;;;;5.25;2.13;;;21.70;28.80;;;;;;4961336;28;20081;-56
2024/01/16 04:24:50;;;;;;;3.85;1.98;;;21.70;28.80;;;;;;4970856;28;20066;-51
2024/01/16 04:27:18;;;;;;;5.38;1.60;;;21.70;28.80;;;;;;4965469;28;20054;-57
2024/01/16 04:29:46;;;;;;;4.97;2.30;;;21.70;28.80;;;;;;4964081;28;20074;-58
2024/01/16 04:32:13;;;;;;;7.50;2.67;;;21.60;28.80;;;;;;4964256;28;20055;-58
2024/01/16 04:34:40;;;;;;;3.90;1.88;;;21.60;28.80;;;;;;4968002;28;20054;-58
2024/01/16 04:37:07;;;;;;;3.88;1.88;;;21.60;28.80;;;;;;4964095;28;20042;-57
2024/01/16 04:39:34;;;;;;;3.78;2.05;;;21.60;28.80;;;;;;4969532;28;20101;-57
2024/01/16 04:42:03;;;;;;;3.58;1.73;;;21.50;28.80;;;;;;4962162;28;20602;-56
2024/01/16 04:44:31;;;;;;;3.38;1.90;;;21.50;28.80;;;;;;4967998;28;20081;-58
2024/01/16 04:46:58;;;;;;;3.53;1.88;;;21.50;28.80;;;;;;4962825;28;20049;-58
2024/01/16 04:49:25;;;;;;;9.30;2.28;;;21.40;28.80;;;;;;4965064;28;20066;-56
2024/01/16 04:51:52;;;;;;;3.92;2.15;;;21.40;28.90;;;;;;4966011;28;20073;-53
2024/01/16 04:54:19;;;;;;;4.53;1.75;;;21.40;28.90;;;;;;4966672;28;20495;-57
2024/01/16 04:56:49;;;;;;;5.25;1.70;;;21.40;29.00;;;;;;4963123;28;20054;-56
2024/01/16 04:59:18;;;;;;;3.47;1.52;;;21.40;29.00;;;;;;4963841;28;20415;-58
2024/01/16 05:01:45;;;;;;;2.67;1.45;;;21.40;29.10;;;;;;4966141;28;20061;-56
2024/01/16 05:04:12;;;;;;;3.55;1.50;;;21.50;29.20;;;;;;4965647;28;20053;-58
2024/01/16 05:06:40;;;;;;;5.15;1.75;;;21.50;29.20;;;;;;4965003;28;20050;-58
2024/01/16 05:09:07;;;;;;;4.15;1.65;;;21.50;29.10;;;;;;4961743;28;20050;-56
2024/01/16 05:11:34;;;;;;;6.43;2.35;;;21.60;29.10;;;;;;4943985;28;20058;-58
2024/01/16 05:14:02;;;;;;;4.93;2.13;;;21.60;29.10;;;;;;4947825;28;20074;-55
2024/01/16 05:16:30;;;;;;;4.32;2.03;;;21.60;29.00;;;;;;4941695;28;20118;-58
2024/01/16 05:18:58;;;;;;;3.83;1.60;;;21.60;29.40;;;;;;4947103;28;20050;-57
2024/01/16 05:21:25;;;;;;;4.05;1.88;;;21.70;29.00;;;;;;4941369;28;20500;-53
2024/01/16 05:23:52;;;;;;;4.00;1.90;;;21.70;29.00;;;;;;4944420;28;20059;-53
2024/01/16 05:26:19;;;;;;;4.07;1.70;;;21.70;29.10;;;;;;4943472;28;20085;-54
2024/01/16 05:28:46;;;;;;;3.97;1.95;;;21.70;29.10;;;;;;4948957;29;20059;-53
2024/01/16 05:31:14;;;;;;;4.25;1.77;;;21.80;29.10;;;;;;4946190;28;20070;-53
2024/01/16 05:33:43;;;;;;;3.20;1.70;;;21.80;29.00;;;;;;4946367;28;20062;-55
2024/01/16 05:36:10;;;;;;;6.05;2.05;;;21.90;29.00;;;;;;4939372;28;20048;-55
2024/01/16 05:38:37;;;;;;;4.10;1.90;;;21.90;28.90;;;;;;4943137;28;20066;-56
2024/01/16 05:41:05;;;;;;;5.05;1.85;;;22.00;28.90;;;;;;4947061;28;20058;-53
2024/01/16 05:43:32;;;;;;;8.88;2.20;;;22.00;28.80;;;;;;4944455;28;20625;-57
2024/01/16 05:46:00;;;;;;;3.58;1.52;;;22.00;28.90;;;;;;4955663;28;20067;-50
2024/01/16 05:48:27;;;;;;;4.15;1.95;;;22.00;29.00;;;;;;4929349;29;20051;-55
2024/01/16 05:50:56;;;;;;;6.78;1.85;;;22.00;28.90;;;;;;4946431;29;20088;-53
2024/01/16 05:53:23;;;;;;;6.82;1.85;;;22.10;29.00;;;;;;4941094;28;20055;-55
2024/01/16 05:55:50;;;;;;;4.20;1.63;;;22.10;29.00;;;;;;4935556;29;20044;-53
2024/01/16 05:58:18;;;;;;;9.70;1.92;;;22.20;29.00;;;;;;4938667;29;20107;-53
2024/01/16 06:00:45;;;;;;;16.25;7.30;;;22.20;28.90;;;;;;4944014;28;20051;-54
2024/01/16 06:03:12;;;;;;;36.58;14.15;;;22.20;28.80;;;;;;4945187;28;20059;-55
2024/01/16 06:05:39;;;;;;;16.63;8.98;;;22.20;28.80;;;;;;4945786;29;20059;-52
2024/01/16 06:08:08;;;;;;;19.55;6.75;;;22.20;28.70;;;;;;4946901;29;20055;-52
2024/01/16 06:10:35;;;;;;;11.52;5.18;;;22.20;28.70;;;;;;4948012;28;20601;-55
2024/01/16 06:13:03;;;;;;;10.20;4.80;;;22.20;28.70;;;;;;4945787;28;20066;-54
2024/01/16 06:15:30;;;;;;;11.05;4.85;;;22.20;28.80;;;;;;4941704;29;20067;-54
2024/01/16 06:17:57;;;;;;;6.93;4.07;;;22.20;28.70;;;;;;4943517;28;20492;-55
2024/01/16 06:20:25;;;;;;;10.98;4.07;;;22.20;28.60;;;;;;4945853;28;20059;-54
2024/01/16 06:22:52;;;;;;;8.65;4.13;;;22.20;28.60;;;;;;4942723;28;20400;-52
2024/01/16 06:25:21;;;;;;;9.93;3.95;;;22.10;28.50;;;;;;4944983;28;20058;-53
2024/01/16 06:27:48;;;;;;;8.63;3.70;;;22.20;28.60;;;;;;4947543;28;20059;-56
2024/01/16 06:30:16;;;;;;;9.23;3.60;;;22.10;28.60;;;;;;4936142;28;20051;-56
2024/01/16 06:32:43;;;;;;;12.80;3.70;;;22.10;28.60;;;;;;4942119;28;20063;-55
2024/01/16 06:35:10;;;;;;;107.18;57.15;;;22.00;28.60;;;;;;4943801;28;20051;-54
2024/01/16 06:37:37;;;;;;;55.33;30.60;;;22.00;28.40;;;;;;4940612;28;20055;-57
2024/01/16 06:40:06;;;;;;;28.20;15.05;;;21.90;28.40;;;;;;4941846;28;20062;-50
2024/01/16 06:42:35;;;;;;;24.52;11.27;;;21.90;28.40;;;;;;4935647;28;20059;-56
2024/01/16 06:45:03;;;;;;;18.58;10.88;;;21.90;28.50;;;;;;4942873;28;20059;-54
2024/01/16 06:47:30;;;;;;;23.88;10.85;;;21.80;28.50;;;;;;4945654;28;20519;-58
2024/01/16 06:49:57;;;;;;;21.63;9.23;;;21.80;28.50;;;;;;4942279;28;20055;-58
2024/01/16 06:52:25;;;;;;;17.35;9.48;;;21.70;28.70;;;;;;4943871;28;20059;-56
2024/01/16 06:54:52;;;;;;;19.10;7.70;;;21.70;28.80;;;;;;4940353;28;20579;-56
2024/01/16 06:57:19;;;;;;;13.07;6.60;;;21.60;28.80;;;;;;4942434;28;20062;-58
2024/01/16 06:59:48;;;;;;;10.90;6.03;;;21.60;28.70;;;;;;4941084;28;20511;-57
2024/01/16 07:02:15;;;;;;;18.13;6.25;;;21.60;28.70;;;;;;4943066;28;20515;-58
2024/01/16 07:04:42;;;;;;;21.35;6.75;;;21.50;28.80;;;;;;4943262;28;20095;-57
2024/01/16 07:07:10;;;;;;;14.43;5.93;;;21.50;28.90;;;;;;4946007;28;20058;-57
2024/01/16 07:09:37;;;;;;;15.20;5.93;;;21.50;28.90;;;;;;4946121;28;20062;-58
2024/01/16 07:12:06;;;;;;;10.95;4.82;;;21.50;29.00;;;;;;4944342;28;20069;-56
2024/01/16 07:14:34;;;;;;;14.43;5.35;;;21.50;29.00;;;;;;4944822;28;20055;-56
2024/01/16 07:17:04;;;;;;;13.68;5.13;;;21.50;29.10;;;;;;4947333;28;20062;-58
2024/01/16 07:19:32;;;;;;;11.05;4.55;;;21.50;29.20;;;;;;4944964;28;20062;-57
2024/01/16 07:22:00;;;;;;;13.38;4.40;;;21.50;29.20;;;;;;4950097;28;20062;-56
2024/01/16 07:24:29;;;;;;;10.35;5.18;;;21.60;29.20;;;;;;4948513;28;20062;-57
2024/01/16 07:26:59;;;;;;;10.45;6.75;;;21.60;29.10;;;;;;4944873;28;20054;-55
2024/01/16 07:29:27;;;;;;;11.50;5.40;;;21.70;29.00;;;;;;4945941;28;20064;-54
2024/01/16 07:31:54;;;;;;;12.10;4.68;;;21.70;29.00;;;;;;4944231;28;20126;-55
2024/01/16 07:34:25;;;;;;;7.90;3.70;;;21.70;28.60;;;;;;4945973;28;20059;-52
2024/01/16 07:36:54;;;;;;;8.65;4.43;;;21.70;28.10;;;;;;4945418;28;20078;-52
2024/01/16 07:39:22;;;;;;;10.88;3.92;;;21.70;27.80;;;;;;4946530;28;20068;-56
2024/01/16 07:41:49;;;;;;;8.93;3.70;;;21.70;27.90;;;;;;4946962;28;20051;-58
2024/01/16 07:44:17;;;;;;;7.70;3.47;;;21.70;28.20;;;;;;4946263;28;20512;-59
2024/01/16 07:46:44;;;;;;;6.90;3.20;;;21.70;28.30;;;;;;4945031;28;20054;-59
2024/01/16 07:49:11;;;;;;;10.98;3.20;;;21.70;28.40;;;;;;4948178;28;20058;-57
2024/01/16 07:51:40;;;;;;;10.80;2.80;;;21.70;28.10;;;;;;4944084;28;20066;-59
2024/01/16 07:54:09;;;;;;;5.90;2.63;;;21.70;26.90;;;;;;4943194;28;20503;-60
2024/01/16 07:56:36;;;;;;;9.38;2.45;;;21.60;26.20;;;;;;4942596;28;20496;-59
2024/01/16 07:59:03;;;;;;;6.72;2.58;;;21.40;25.70;;;;;;4943392;28;20289;-49
2024/01/16 08:01:31;;;;;;;6.07;2.65;;;21.30;25.50;;;;;;4944566;28;20420;-56
2024/01/16 08:03:58;;;;;;;6.13;2.30;;;21.00;25.80;;;;;;4942880;28;20051;-54
2024/01/16 08:06:25;;;;;;;9.38;2.50;;;20.80;26.10;;;;;;4943456;28;20070;-59
2024/01/16 08:08:54;;;;;;;8.85;2.22;;;20.70;26.40;;;;;;4946602;28;20385;-54
2024/01/16 08:11:21;;;;;;;8.95;2.28;;;20.50;26.90;;;;;;4943147;28;20067;-60
2024/01/16 08:13:51;;;;;;;12.50;2.30;;;20.40;27.30;;;;;;4947074;28;20060;-60
2024/01/16 08:16:18;;;;;;;4.72;2.20;;;20.40;27.60;;;;;;4946677;28;20058;-61
2024/01/16 08:18:45;;;;;;;15.65;2.42;;;20.40;27.90;;;;;;4943885;28;20381;-59
2024/01/16 08:21:12;;;;;;;4.15;1.90;;;20.40;28.10;;;;;;4944390;28;20055;-56
2024/01/16 08:23:39;;;;;;;4.95;1.75;;;20.50;28.20;;;;;;4945099;28;20051;-61
2024/01/16 08:26:08;;;;;;;8.18;2.00;;;20.60;28.40;;;;;;4945375;28;20062;-62
2024/01/16 08:28:35;;;;;;;11.32;2.28;;;20.60;28.80;;;;;;4943981;28;20051;-60
2024/01/16 08:31:03;;;;;;;7.45;1.60;;;20.70;28.50;;;;;;4945644;28;20063;-60
2024/01/16 08:33:31;;;;;;;21.55;6.82;;;20.80;28.50;;;;;;4946183;28;20055;-60
2024/01/16 08:35:58;;;;;;;41.28;25.58;;;20.80;28.50;;;;;;4942973;28;20085;-60
2024/01/16 08:38:26;;;;;;;47.33;29.35;;;20.90;28.30;;;;;;4946822;28;20055;-61
2024/01/16 08:40:53;;;;;;;30.40;17.27;;;20.90;28.10;;;;;;4946950;28;20059;-62
2024/01/16 08:43:22;;;;;;;16.17;10.10;;;21.00;28.10;;;;;;4946890;28;20078;-61
2024/01/16 08:45:50;;;;;;;15.60;8.30;;;21.00;28.20;;;;;;4944162;28;20421;-61
2024/01/16 08:48:17;;;;;;;18.98;7.00;;;21.10;28.20;;;;;;4943172;28;20070;-60
2024/01/16 08:50:45;;;;;;;10.95;5.18;;;21.10;28.20;;;;;;4940849;28;20061;-55
2024/01/16 08:53:12;;;;;;;10.43;5.53;;;21.10;28.10;;;;;;4948438;28;20055;-61
2024/01/16 08:55:39;;;;;;;10.82;5.25;;;21.10;28.10;;;;;;4945560;28;20059;-64
2024/01/16 08:58:07;;;;;;;8.98;4.05;;;21.10;28.20;;;;;;4943886;28;20051;-63
2024/01/16 09:00:35;;;;;;;8.35;3.60;;;21.20;28.20;;;;;;4946984;28;20051;-64
2024/01/16 09:03:03;;;;;;;6.93;3.67;;;21.20;28.10;;;;;;4945462;28;20413;-66
2024/01/16 09:05:30;;;;;;;7.53;3.50;;;21.20;28.10;;;;;;4946063;28;20055;-66
2024/01/16 09:07:57;;;;;;;10.68;3.30;;;21.20;28.00;;;;;;4947616;28;20086;-66
2024/01/16 09:10:24;;;;;;;7.15;3.20;;;21.20;28.00;;;;;;4945979;28;20051;-64
2024/01/16 09:12:51;;;;;;;8.13;3.38;;;21.20;28.00;;;;;;4946637;28;20511;-66
2024/01/16 09:15:19;;;;;;;5.97;3.05;;;21.20;28.00;;;;;;4946238;28;20059;-65
2024/01/16 09:17:47;;;;;;;8.48;2.92;;;21.20;28.00;;;;;;4946514;28;20058;-65
2024/01/16 09:20:14;;;;;;;6.90;3.03;;;21.20;27.90;;;;;;4946343;28;20047;-61
2024/01/16 09:22:42;;;;;;;8.45;2.65;;;21.10;27.80;;;;;;4944801;28;20062;-60
2024/01/16 09:25:09;;;;;;;6.90;2.50;;;21.10;27.80;;;;;;4944155;28;20394;-65
2024/01/16 09:27:36;;;;;;;9.65;2.22;;;21.10;27.90;;;;;;4942603;28;20051;-64
2024/01/16 09:30:07;;;;;;;14.02;2.45;;;21.10;27.90;;;;;;4944309;28;20043;-64
2024/01/16 09:32:34;;;;;;;7.82;1.95;;;21.10;28.00;;;;;;4945128;28;20055;-61
2024/01/16 09:35:06;;;;;;;13.93;2.60;;;21.10;28.10;;;;;;4943485;28;20063;-64
2024/01/16 09:37:33;;;;;;;16.00;3.00;;;21.10;28.30;;;;;;4944729;28;20070;-65
2024/01/16 09:40:00;;;;;;;14.35;2.55;;;21.00;28.50;;;;;;4943701;28;20044;-66
2024/01/16 09:42:28;;;;;;;9.43;2.40;;;21.10;28.60;;;;;;4944294;28;20055;-65
2024/01/16 09:44:56;;;;;;;11.98;3.00;;;21.10;28.60;;;;;;4940584;28;20054;-63
2024/01/16 09:47:25;;;;;;;6.70;2.15;;;21.10;28.60;;;;;;4940020;28;20062;-63
2024/01/16 09:49:55;;;;;;;12.90;2.60;;;21.20;28.80;;;;;;4933544;28;20440;-64
2024/01/16 09:52:24;;;;;;;8.70;3.03;;;21.20;28.90;;;;;;4929741;29;20066;-63
2024/01/16 09:54:51;;;;;;;9.73;2.50;;;21.30;28.70;;;;;;4937512;28;20067;-63
2024/01/16 09:57:22;;;;;;;9.55;3.30;;;21.30;28.60;;;;;;4945641;28;20496;-62
2024/01/16 09:59:49;;;;;;;7.40;3.63;;;21.40;28.60;;;;;;4940164;28;20051;-63
2024/01/16 10:02:17;;;;;;;9.32;3.85;;;21.40;28.50;;;;;;4937057;28;20625;-60
2024/01/16 10:04:44;;;;;;;13.98;3.95;;;21.50;28.50;;;;;;4946343;28;20047;-60
2024/01/16 10:07:15;;;;;;;10.27;3.85;;;21.50;28.60;;;;;;4944694;28;20051;-60
2024/01/16 10:09:44;;;;;;;8.95;3.55;;;21.50;28.40;;;;;;4937922;28;20051;-59
2024/01/16 10:12:11;;;;;;;14.68;3.60;;;21.60;28.40;;;;;;4940847;28;20055;-61
2024/01/16 10:14:40;;;;;;;7.90;3.25;;;21.60;28.30;;;;;;4940210;28;20051;-60
2024/01/16 10:17:14;;;;;;;7.57;3.08;;;21.70;28.30;;;;;;4943057;28;20433;-59
2024/01/16 10:19:50;;;;;;;10.95;3.80;;;21.70;28.40;;;;;;4947397;28;20412;-60
2024/01/16 10:22:21;;;;;;;10.27;3.10;;;21.70;28.70;;;;;;4944443;28;20051;-60
2024/01/16 10:24:50;;;;;;;8.15;2.92;;;21.70;28.30;;;;;;4946056;28;20508;-58
2024/01/16 10:27:18;;;;;;;12.98;3.40;;;21.80;28.30;;;;;;4946048;28;20051;-59
2024/01/16 10:30:01;;;;;;;10.40;2.70;;;21.80;28.20;;;;;;4940207;28;20055;-59
2024/01/16 10:32:30;;;;;;;9.25;2.55;;;21.80;28.00;;;;;;4942634;28;20063;-61
2024/01/16 10:35:05;;;;;;;5.63;2.30;;;21.80;28.00;;;;;;4942452;28;20054;-59
2024/01/16 10:37:42;;;;;;;6.47;2.33;;;21.70;28.00;;;;;;4944484;28;20059;-60
2024/01/16 10:40:15;;;;;;;7.57;2.70;;;21.70;28.00;;;;;;4946377;28;20054;-60
2024/01/16 10:42:43;;;;;;;8.87;2.80;;;21.70;27.90;;;;;;4948124;28;20404;-60
2024/01/16 10:45:19;;;;;;;6.65;2.42;;;21.70;27.90;;;;;;4947872;28;20065;-60
2024/01/16 10:47:48;;;;;;;4.75;1.90;;;21.60;27.90;;;;;;4942301;28;20051;-60
2024/01/16 10:50:16;;;;;;;4.80;1.85;;;21.60;27.90;;;;;;4949038;28;20573;-60
2024/01/16 10:52:48;;;;;;;6.47;2.38;;;21.60;27.90;;;;;;4947615;28;20424;-60
2024/01/16 10:55:22;;;;;;;4.43;2.00;;;21.50;27.80;;;;;;4946217;28;20059;-60
2024/01/16 10:57:52;;;;;;;4.43;1.85;;;21.50;27.80;;;;;;4945123;28;20060;-60
2024/01/16 11:00:21;;;;;;;6.78;2.00;;;21.50;27.80;;;;;;4943088;28;20047;-60
2024/01/16 11:02:58;;;;;;;5.38;2.08;;;21.40;27.70;;;;;;4947621;28;20054;-59
2024/01/16 11:05:26;;;;;;;4.30;1.75;;;21.40;27.70;;;;;;4945514;28;20058;-60
2024/01/16 11:07:56;;;;;;;4.65;1.63;;;21.40;27.70;;;;;;4948890;28;20081;-60
2024/01/16 11:10:25;;;;;;;5.47;2.00;;;21.40;27.80;;;;;;4949695;28;20061;-65
2024/01/16 11:12:53;;;;;;;4.55;1.73;;;21.30;27.80;;;;;;4948381;28;20059;-65
2024/01/16 11:15:21;;;;;;;4.63;1.70;;;21.30;27.90;;;;;;4946441;28;20055;-63
2024/01/16 11:17:49;;;;;;;3.55;1.20;;;21.30;27.90;;;;;;4945743;28;20063;-64
2024/01/16 11:20:18;;;;;;;4.32;1.50;;;21.30;28.00;;;;;;4945708;28;20144;-64
2024/01/16 11:22:47;;;;;;;2.58;1.20;;;21.30;28.00;;;;;;4948886;28;20399;-65
2024/01/16 11:25:16;;;;;;;5.53;1.80;;;21.30;28.10;;;;;;4946140;28;20058;-60
2024/01/16 11:27:50;;;;;;;3.45;1.48;;;21.40;28.20;;;;;;4947086;28;20067;-64
2024/01/16 11:30:31;;;;;;;6.28;1.70;;;21.40;28.60;;;;;;4945659;28;20498;-63
2024/01/16 11:32:59;;;;;;;3.65;1.50;;;21.40;28.10;;;;;;4946124;28;20058;-62
2024/01/16 11:35:33;;;;;;;2.72;1.27;;;21.40;28.10;;;;;;4944114;28;20055;-64
2024/01/16 11:38:06;;;;;;;3.85;1.60;;;21.50;28.10;;;;;;4950668;28;20518;-64
2024/01/16 11:40:33;;;;;;;3.13;1.30;;;21.50;28.00;;;;;;4944719;28;20133;-58
2024/01/16 11:43:39;;;;;;;4.57;1.58;;;21.50;28.20;;;;;;4946686;28;20060;-59
2024/01/16 11:46:07;;;;;;;9.38;1.50;;;21.60;28.50;;;;;;4938842;28;20538;-61
2024/01/16 11:48:35;;;;;;;11.18;2.45;;;21.60;28.50;;;;;;4946431;29;20062;-62
2024/01/16 12:22:02;;;;;;;4.90;1.30;;;21.60;27.80;;;;;;4952545;29;20039;-59
2024/01/16 12:49:13;;;;;;;4.65;1.80;;;21.20;27.70;;;;;;4986697;28;20049;-58
2024/01/16 12:51:40;;;;;;;3.40;1.40;;;21.10;27.80;;;;;;4930594;29;20067;-58
2024/01/16 12:54:15;;;;;;;3.85;1.02;;;21.10;27.90;;;;;;4927462;29;20409;-58
2024/01/16 12:56:42;;;;;;;4.03;1.27;;;21.10;28.00;;;;;;4932077;29;20056;-58
2024/01/16 12:59:11;;;;;;;3.53;1.38;;;21.10;28.00;;;;;;4931377;29;20063;-58
2024/01/16 13:01:43;;;;;;;2.95;1.13;;;21.10;28.10;;;;;;4928909;29;20481;-58
2024/01/16 13:04:10;;;;;;;4.38;1.60;;;21.10;28.50;;;;;;4930216;29;20048;-59
2024/01/16 13:06:40;;;;;;;3.17;1.17;;;21.20;28.20;;;;;;4928013;29;20497;-59
2024/01/16 13:09:10;;;;;;;3.72;1.35;;;21.20;28.20;;;;;;4931062;29;20056;-58
2024/01/16 13:11:50;;;;;;;3.90;1.40;;;21.30;28.20;;;;;;4926226;29;20048;-58
2024/01/16 13:14:18;;;;;;;3.75;1.20;;;21.30;28.20;;;;;;4930721;29;20079;-58
2024/01/16 13:16:45;;;;;;;3.08;0.98;;;21.40;28.20;;;;;;4925939;29;20059;-60
2024/01/16 13:19:12;;;;;;;5.03;1.67;;;21.50;28.20;;;;;;4930932;29;20492;-60
2024/01/16 13:21:41;;;;;;;2.25;0.98;;;21.50;28.20;;;;;;4929666;29;20074;-60
2024/01/16 13:24:08;;;;;;;3.40;1.60;;;21.50;28.20;;;;;;4930798;29;20512;-59
2024/01/16 13:26:36;;;;;;;3.83;1.30;;;21.60;28.10;;;;;;4925507;29;20051;-59
2024/01/16 13:29:05;;;;;;;3.40;1.38;;;21.70;28.10;;;;;;4930328;29;20052;-60
2024/01/16 13:31:33;;;;;;;2.78;1.10;;;21.70;28.00;;;;;;4927381;29;20062;-58
2024/01/16 13:34:00;;;;;;;3.97;1.40;;;21.80;28.00;;;;;;4929020;29;20058;-58
2024/01/16 13:36:27;;;;;;;2.72;1.23;;;21.80;28.00;;;;;;4930114;29;20059;-58
2024/01/16 13:38:56;;;;;;;3.33;1.15;;;21.80;27.90;;;;;;4930510;29;20048;-61
2024/01/16 13:41:24;;;;;;;2.55;1.05;;;21.80;27.80;;;;;;4929875;29;20051;-60
2024/01/16 13:43:51;;;;;;;2.92;1.15;;;21.90;27.80;;;;;;4929557;29;20491;-59
2024/01/16 13:46:18;;;;;;;3.08;1.15;;;21.90;27.80;;;;;;4927769;29;20063;-59